Time;durP1;ratioP1;P1;durP2;ratioP2;P2;SDS_P1;SDS_P2;PMS_P1;PMS_P2;Temp;Humidity;BMP_temperature;BMP_pressure;BME280_temperature;BME280_humidity;BME280_pressure;Samples;Min_cycle;Max_cycle;Signal;HPM_P1;HPM_P2
2022/08/11 00:00:38;;;;;;;6.80;3.50;;;18.60;99.90;;;;;;5033986;28;20115;-80
2022/08/11 00:03:07;;;;;;;6.93;3.08;;;18.60;99.90;;;;;;5032371;28;20069;-80
2022/08/11 00:05:43;;;;;;;7.13;3.20;;;18.60;99.90;;;;;;5032438;28;20053;-80
2022/08/11 00:08:09;;;;;;;6.15;3.15;;;18.60;99.90;;;;;;5033781;28;20125;-80
2022/08/11 00:10:37;;;;;;;4.95;2.83;;;18.60;99.90;;;;;;5033765;28;20200;-80
2022/08/11 00:13:06;;;;;;;6.97;3.13;;;18.60;99.90;;;;;;5032718;28;20481;-80
2022/08/11 00:15:41;;;;;;;7.63;3.25;;;18.60;99.90;;;;;;5033647;28;20045;-80
2022/08/11 00:18:08;;;;;;;7.85;3.50;;;18.60;99.90;;;;;;5032554;28;20041;-80
2022/08/11 00:20:38;;;;;;;8.35;3.30;;;18.60;99.90;;;;;;5033519;28;20077;-80
2022/08/11 00:23:14;;;;;;;6.68;3.40;;;18.60;99.90;;;;;;5033685;28;20037;-80
2022/08/11 00:25:50;;;;;;;6.75;3.70;;;18.60;99.90;;;;;;5033413;28;20054;-80
2022/08/11 00:28:22;;;;;;;10.10;3.67;;;18.50;99.90;;;;;;5037756;28;20049;-80
2022/08/11 00:30:50;;;;;;;7.63;3.43;;;18.50;99.90;;;;;;5036553;28;20099;-80
2022/08/11 00:33:17;;;;;;;6.38;3.30;;;18.40;99.90;;;;;;5036562;28;20121;-80
2022/08/11 00:35:44;;;;;;;5.72;3.22;;;18.40;99.90;;;;;;5037603;28;20042;-80
2022/08/11 00:38:11;;;;;;;8.50;3.80;;;18.30;99.90;;;;;;5036534;28;20041;-80
2022/08/11 00:40:59;;;;;;;7.88;3.40;;;18.30;99.90;;;;;;5037547;28;20049;-80
2022/08/11 00:43:38;;;;;;;6.18;3.25;;;18.30;99.90;;;;;;5036142;28;20045;-80
2022/08/11 00:46:22;;;;;;;7.03;3.28;;;18.20;99.90;;;;;;5037616;28;20041;-80
2022/08/11 00:49:08;;;;;;;10.40;3.50;;;18.20;99.90;;;;;;5037507;28;20481;-80
2022/08/11 00:51:39;;;;;;;7.13;3.60;;;18.10;99.90;;;;;;5037375;28;20041;-80
2022/08/11 00:54:43;;;;;;;5.63;3.33;;;18.10;99.90;;;;;;5037314;28;20116;-79
2022/08/11 00:57:34;;;;;;;7.90;3.60;;;18.00;99.90;;;;;;5037259;28;20049;-79
2022/08/11 01:00:22;;;;;;;6.18;3.30;;;18.00;99.90;;;;;;5036070;28;20087;-80
2022/08/11 01:03:06;;;;;;;6.47;2.70;;;18.00;99.90;;;;;;5035912;28;20393;-79
2022/08/11 01:05:57;;;;;;;6.70;2.92;;;18.00;99.90;;;;;;5037140;28;20123;-79
2022/08/11 01:08:43;;;;;;;5.57;2.90;;;18.00;99.90;;;;;;5036824;28;20444;-79
2022/08/11 01:11:33;;;;;;;6.63;3.22;;;17.90;99.90;;;;;;5037054;28;20128;-79
2022/08/11 01:14:26;;;;;;;7.25;3.38;;;17.90;99.90;;;;;;5036801;28;20045;-80
2022/08/11 01:17:19;;;;;;;6.13;2.97;;;17.90;99.90;;;;;;5035814;28;20054;-80
2022/08/11 01:19:50;;;;;;;7.25;3.28;;;17.80;99.90;;;;;;5035818;28;20053;-79
2022/08/11 01:22:35;;;;;;;5.75;3.50;;;17.80;99.90;;;;;;5036901;28;20077;-80
2022/08/11 01:25:38;;;;;;;5.75;3.30;;;17.80;99.90;;;;;;5035576;28;20057;-79
2022/08/11 01:28:10;;;;;;;5.13;3.17;;;17.80;99.90;;;;;;5035688;28;20124;-79
2022/08/11 01:30:54;;;;;;;5.95;3.22;;;17.80;99.90;;;;;;5035318;28;20471;-80
2022/08/11 01:34:04;;;;;;;6.43;3.45;;;17.80;99.90;;;;;;5035326;28;20128;-79
2022/08/11 01:36:57;;;;;;;8.40;3.70;;;17.80;99.90;;;;;;5035517;28;20046;-80
2022/08/11 01:39:51;;;;;;;8.57;3.90;;;17.70;99.90;;;;;;5005469;28;20144;-80
2022/08/11 01:45:30;;;;;;;7.35;3.67;;;17.70;99.90;;;;;;5035182;28;20081;-79
2022/08/11 01:48:19;;;;;;;5.50;3.80;;;17.70;99.90;;;;;;5034970;28;20057;-80
2022/08/11 01:51:12;;;;;;;6.45;4.18;;;17.80;99.90;;;;;;5035215;28;20041;-79
2022/08/11 01:54:10;;;;;;;9.90;5.10;;;17.70;99.90;;;;;;5036166;28;20041;-79
2022/08/11 01:56:50;;;;;;;10.73;4.07;;;17.60;99.90;;;;;;5035946;28;20629;-79
2022/08/11 01:59:35;;;;;;;7.75;3.90;;;17.70;99.90;;;;;;5036183;28;20050;-79
2022/08/11 02:02:48;;;;;;;5.97;3.47;;;17.70;99.90;;;;;;5035046;28;20576;-79
2022/08/11 02:05:36;;;;;;;7.03;3.92;;;17.70;99.90;;;;;;5035947;28;20054;-79
2022/08/11 02:08:21;;;;;;;8.60;4.50;;;17.70;99.90;;;;;;5036024;28;20053;-80
2022/08/11 02:13:53;;;;;;;8.00;4.40;;;17.70;99.90;;;;;;5035813;28;20087;-79
2022/08/11 02:16:47;;;;;;;8.15;4.68;;;17.70;99.90;;;;;;5034801;28;20054;-79
2022/08/11 02:25:01;;;;;;;7.65;4.88;;;17.60;99.90;;;;;;5034665;28;20095;-79
2022/08/11 02:27:46;;;;;;;7.93;4.60;;;17.60;99.90;;;;;;5034393;28;20061;-79
2022/08/11 02:30:19;;;;;;;9.57;4.60;;;17.60;99.90;;;;;;5034445;28;20049;-79
2022/08/11 02:33:23;;;;;;;9.80;4.72;;;17.60;99.90;;;;;;5035580;28;20440;-79
2022/08/11 02:36:19;;;;;;;8.48;4.65;;;17.60;99.90;;;;;;5034592;28;20517;-79
2022/08/11 02:38:50;;;;;;;6.07;4.80;;;17.60;99.90;;;;;;5034092;28;20115;-79
2022/08/11 02:45:07;;;;;;;7.50;4.70;;;17.60;99.90;;;;;;5033840;28;20057;-79
2022/08/11 02:51:13;;;;;;;8.23;5.25;;;17.60;99.90;;;;;;5033084;28;20132;-79
2022/08/11 02:54:34;;;;;;;12.10;5.32;;;17.50;99.90;;;;;;5033762;28;20095;-79
2022/08/11 02:57:19;;;;;;;10.32;5.78;;;17.50;99.90;;;;;;5011941;28;20068;-79
2022/08/11 02:59:54;;;;;;;7.95;5.80;;;17.50;99.90;;;;;;5033949;28;20129;-78
2022/08/11 03:02:44;;;;;;;11.20;5.80;;;17.50;99.90;;;;;;5034906;28;20119;-79
2022/08/11 03:05:15;;;;;;;9.18;5.35;;;17.50;99.90;;;;;;5034904;28;20056;-79
2022/08/11 03:08:12;;;;;;;11.05;6.03;;;17.50;99.90;;;;;;5033556;28;20042;-79
2022/08/11 03:17:24;;;;;;;11.52;6.45;;;17.50;99.90;;;;;;5033445;28;20079;-79
2022/08/11 03:19:59;;;;;;;11.32;6.78;;;17.50;99.90;;;;;;5034645;28;20051;-79
2022/08/11 03:22:55;;;;;;;11.25;6.57;;;17.50;99.90;;;;;;5033247;28;20041;-79
2022/08/11 03:25:49;;;;;;;11.57;6.47;;;17.40;99.90;;;;;;5034294;28;20085;-79
2022/08/11 03:28:46;;;;;;;11.57;7.03;;;17.40;99.90;;;;;;5033070;28;20068;-79
2022/08/11 03:31:24;;;;;;;14.23;7.13;;;17.40;99.90;;;;;;5034389;28;20053;-79
2022/08/11 03:34:02;;;;;;;11.32;7.82;;;17.40;99.90;;;;;;5034233;28;20485;-78
2022/08/11 03:36:38;;;;;;;12.43;7.63;;;17.50;99.90;;;;;;5034116;28;20048;-79
2022/08/11 03:39:07;;;;;;;12.15;7.43;;;17.40;99.90;;;;;;5033248;28;20045;-79
2022/08/11 03:41:58;;;;;;;20.25;8.07;;;17.40;99.90;;;;;;5033132;28;20053;-79
2022/08/11 03:44:47;;;;;;;12.85;7.15;;;17.40;99.90;;;;;;5034472;28;20104;-79
2022/08/11 03:47:40;;;;;;;11.60;7.60;;;17.40;99.90;;;;;;5034108;28;20073;-79
2022/08/11 03:50:23;;;;;;;13.38;7.10;;;17.40;99.90;;;;;;5032825;28;20080;-79
2022/08/11 03:53:01;;;;;;;12.02;7.47;;;17.40;99.90;;;;;;5034076;28;20042;-79
2022/08/11 03:55:30;;;;;;;12.00;7.57;;;17.40;99.90;;;;;;5033578;28;20434;-77
2022/08/11 03:57:58;;;;;;;13.82;7.53;;;17.40;99.90;;;;;;5033599;28;20504;-79
2022/08/11 04:00:53;;;;;;;15.95;8.63;;;17.40;99.90;;;;;;5031527;28;20045;-79
2022/08/11 04:03:46;;;;;;;10.93;7.55;;;17.40;99.90;;;;;;5032427;28;20120;-79
2022/08/11 04:06:28;;;;;;;15.45;8.75;;;17.40;99.90;;;;;;5032112;28;20045;-79
2022/08/11 04:09:02;;;;;;;12.20;8.47;;;17.40;99.90;;;;;;5032427;28;20056;-79
2022/08/11 04:11:50;;;;;;;14.30;8.43;;;17.30;99.90;;;;;;5032580;28;20288;-79
2022/08/11 04:17:47;;;;;;;13.07;7.93;;;17.30;99.90;;;;;;5033512;28;20053;-78
2022/08/11 04:20:40;;;;;;;13.32;7.20;;;17.30;99.90;;;;;;5033627;28;20041;-78
2022/08/11 04:23:27;;;;;;;13.35;8.02;;;17.30;99.90;;;;;;5032174;28;20045;-78
2022/08/11 04:26:25;;;;;;;11.65;7.40;;;17.20;99.90;;;;;;5032069;28;20057;-79
2022/08/11 04:29:10;;;;;;;11.95;7.93;;;17.30;99.90;;;;;;5032057;28;20111;-79
2022/08/11 04:32:03;;;;;;;11.50;7.38;;;17.20;99.90;;;;;;5033523;28;20041;-78
2022/08/11 04:34:41;;;;;;;13.57;8.27;;;17.20;99.90;;;;;;5033399;28;20179;-78
2022/08/11 04:37:34;;;;;;;15.57;7.82;;;17.20;99.90;;;;;;5033558;28;20120;-78
2022/08/11 04:40:25;;;;;;;10.38;7.30;;;17.20;99.90;;;;;;5033523;28;20041;-78
2022/08/11 04:43:19;;;;;;;13.77;7.43;;;17.20;99.90;;;;;;4992515;28;20242;-78
2022/08/11 04:46:43;;;;;;;12.68;7.78;;;17.20;99.90;;;;;;5031844;28;20381;-78
2022/08/11 05:02:23;;;;;;;12.35;7.68;;;17.30;99.90;;;;;;4972146;28;20062;-78
2022/08/11 05:05:39;;;;;;;14.65;8.20;;;17.30;99.90;;;;;;4956026;28;20478;-78
2022/08/11 05:08:34;;;;;;;13.48;7.18;;;17.40;99.90;;;;;;4999296;28;20054;-78
2022/08/11 05:11:11;;;;;;;11.32;8.07;;;17.40;99.90;;;;;;5031834;28;20049;-78
2022/08/11 05:36:53;;;;;;;13.23;8.23;;;17.80;99.90;;;;;;5035555;28;20103;-79
2022/08/11 05:56:19;;;;;;;10.52;6.60;;;18.40;99.90;;;;;;5036208;28;20095;-79
2022/08/11 05:58:52;;;;;;;10.02;7.20;;;18.50;99.90;;;;;;5034936;28;20412;-79
2022/08/11 06:01:25;;;;;;;11.25;6.93;;;18.70;99.90;;;;;;5034946;28;20045;-79
2022/08/11 06:04:14;;;;;;;10.32;7.20;;;18.90;99.90;;;;;;5035388;28;20476;-78
2022/08/11 06:06:50;;;;;;;8.80;6.70;;;19.00;99.90;;;;;;5035826;28;20081;-79
2022/08/11 06:09:22;;;;;;;9.95;5.68;;;19.10;99.90;;;;;;5035958;28;20037;-79
2022/08/11 06:11:49;;;;;;;10.23;6.28;;;19.30;99.90;;;;;;5035555;28;20405;-79
2022/08/11 06:14:16;;;;;;;10.43;6.80;;;19.40;99.90;;;;;;5035549;28;20182;-79
2022/08/11 06:16:46;;;;;;;12.27;5.45;;;19.60;99.90;;;;;;5035635;28;20512;-79
2022/08/11 06:19:13;;;;;;;11.85;6.28;;;19.80;99.90;;;;;;5035823;28;20096;-79
2022/08/11 06:21:45;;;;;;;8.27;5.40;;;19.90;99.90;;;;;;5034231;28;20121;-79
2022/08/11 06:24:11;;;;;;;;;;;20.10;99.90;;;;;;5036007;28;20180;-79
2022/08/11 06:26:39;;;;;;;9.10;5.43;;;20.30;99.90;;;;;;5035174;28;19921;-79
2022/08/11 06:29:05;;;;;;;10.30;5.57;;;20.40;99.90;;;;;;5035547;28;20045;-79
2022/08/11 06:31:32;;;;;;;7.47;5.10;;;20.50;99.90;;;;;;5035359;28;20412;-79
2022/08/11 06:34:06;;;;;;;8.52;5.05;;;20.70;99.90;;;;;;5035118;28;20515;-80
2022/08/11 06:36:52;;;;;;;8.30;5.97;;;20.90;99.90;;;;;;5035303;28;20060;-80
2022/08/11 06:39:26;;;;;;;9.07;4.93;;;20.90;99.90;;;;;;5035428;28;20037;-79
2022/08/11 06:42:07;;;;;;;8.60;4.60;;;21.10;99.90;;;;;;5035279;28;20045;-81
2022/08/11 06:44:41;;;;;;;6.28;4.60;;;21.20;99.90;;;;;;5034113;28;20068;-81
2022/08/11 06:47:13;;;;;;;9.13;4.50;;;21.40;99.90;;;;;;5035300;28;20041;-82
2022/08/11 06:52:35;;;;;;;8.02;5.43;;;21.50;99.90;;;;;;5043519;28;20055;-80
2022/08/11 06:55:14;;;;;;;8.80;5.38;;;21.60;99.90;;;;;;5034376;28;20037;-82
2022/08/11 07:00:32;;;;;;;11.30;6.15;;;21.80;99.90;;;;;;5034731;28;20119;-79
2022/08/11 07:03:02;;;;;;;8.45;5.32;;;21.90;99.90;;;;;;5034436;28;20078;-79
2022/08/11 07:05:38;;;;;;;7.80;5.20;;;21.90;99.90;;;;;;5033242;28;20083;-79
2022/08/11 07:17:16;;;;;;;11.13;6.03;;;22.00;99.90;;;;;;5034421;28;20060;-79
2022/08/11 07:31:12;;;;;;;7.03;4.55;;;22.60;99.90;;;;;;5034108;28;20065;-79
2022/08/11 07:34:10;;;;;;;8.73;5.60;;;22.70;99.90;;;;;;5032828;28;20045;-80
2022/08/11 07:36:44;;;;;;;8.60;5.00;;;22.90;99.90;;;;;;5017390;28;20479;-79
2022/08/11 07:39:16;;;;;;;12.43;6.68;;;23.00;99.90;;;;;;5034118;28;20041;-79
2022/08/11 07:41:42;;;;;;;8.65;5.20;;;23.10;99.90;;;;;;5033757;28;20041;-79
2022/08/11 07:44:10;;;;;;;6.72;4.30;;;23.10;99.90;;;;;;5032676;28;20072;-81
2022/08/11 07:52:31;;;;;;;8.70;5.00;;;23.30;99.90;;;;;;5033795;28;20056;-81
2022/08/11 07:55:17;;;;;;;6.70;3.85;;;23.50;99.90;;;;;;5032245;28;20526;-80
2022/08/11 08:19:59;;;;;;;8.60;5.68;;;24.60;99.90;;;;;;5053253;28;20053;-81
2022/08/11 08:22:26;;;;;;;8.30;5.28;;;24.40;99.90;;;;;;5053302;28;20124;-81
2022/08/11 08:24:55;;;;;;;11.05;5.82;;;24.30;99.90;;;;;;5051869;28;20053;-82
2022/08/11 08:27:21;;;;;;;7.55;4.88;;;24.60;99.90;;;;;;5052853;28;20132;-81
2022/08/11 08:32:37;;;;;;;8.45;5.70;;;24.80;99.90;;;;;;5053123;28;20044;-80
2022/08/11 08:35:04;;;;;;;7.38;6.30;;;24.70;99.90;;;;;;5051629;28;20550;-80
2022/08/11 08:37:29;;;;;;;7.55;5.63;;;24.60;99.90;;;;;;5053002;28;20087;-80
2022/08/11 08:39:57;;;;;;;6.72;5.03;;;24.70;99.90;;;;;;5051657;28;20073;-83
2022/08/11 08:42:29;;;;;;;7.75;5.60;;;24.90;99.90;;;;;;5048613;28;20055;-81
2022/08/11 08:45:07;;;;;;;8.02;6.57;;;25.10;99.90;;;;;;5051903;28;20048;-81
2022/08/11 08:47:40;;;;;;;9.88;6.30;;;24.90;99.90;;;;;;5052025;28;20385;-80
2022/08/11 08:50:20;;;;;;;9.70;6.05;;;25.00;99.90;;;;;;5057015;28;20057;-82
2022/08/11 08:52:57;;;;;;;8.13;6.30;;;24.80;99.90;;;;;;5056825;28;20051;-80
2022/08/11 08:55:24;;;;;;;7.65;4.95;;;24.60;99.90;;;;;;5055485;28;20103;-81
2022/08/11 08:57:53;;;;;;;9.57;5.63;;;24.70;99.90;;;;;;5055727;28;20049;-82
2022/08/11 09:00:20;;;;;;;7.65;5.57;;;25.00;99.90;;;;;;5056144;28;20552;-80
2022/08/11 09:02:47;;;;;;;9.25;5.38;;;25.10;99.90;;;;;;5056680;28;20045;-80
2022/08/11 09:05:16;;;;;;;8.75;5.28;;;24.60;99.90;;;;;;5055578;28;20488;-80
2022/08/11 09:07:46;;;;;;;8.73;5.97;;;24.60;99.90;;;;;;5055493;28;20477;-81
2022/08/11 09:10:16;;;;;;;5.85;4.85;;;25.10;99.90;;;;;;5056169;28;20048;-80
2022/08/11 09:12:42;;;;;;;9.27;6.72;;;25.20;99.90;;;;;;5056695;28;20056;-81
2022/08/11 09:15:10;;;;;;;7.75;5.82;;;25.30;99.90;;;;;;5055246;28;20087;-80
2022/08/11 09:17:45;;;;;;;9.18;5.35;;;25.20;99.90;;;;;;5055361;28;20095;-81
2022/08/11 09:20:24;;;;;;;7.72;4.97;;;25.30;99.90;;;;;;5056478;28;20051;-82
2022/08/11 09:28:29;;;;;;;8.93;4.55;;;25.70;99.90;;;;;;5056157;28;20488;-80
2022/08/11 09:30:56;;;;;;;7.18;5.60;;;25.90;99.90;;;;;;5055182;28;20059;-81
2022/08/11 09:33:23;;;;;;;9.20;4.80;;;25.90;99.90;;;;;;5052711;28;20041;-81
2022/08/11 09:35:51;;;;;;;7.97;5.50;;;25.80;99.90;;;;;;5054367;28;20040;-81
2022/08/11 09:41:06;;;;;;;7.15;4.75;;;25.50;99.90;;;;;;5056176;28;20092;-80
2022/08/11 09:46:29;;;;;;;11.57;5.47;;;25.90;99.90;;;;;;5056048;28;20068;-82
2022/08/11 09:48:58;;;;;;;7.95;4.95;;;25.50;99.90;;;;;;5056028;28;20099;-82
2022/08/11 09:51:28;;;;;;;12.52;5.63;;;25.60;99.90;;;;;;5054544;28;20049;-84
2022/08/11 09:53:55;;;;;;;10.35;5.05;;;25.80;99.90;;;;;;5053624;28;20049;-81
2022/08/11 09:59:07;;;;;;;12.35;6.63;;;26.30;99.90;;;;;;5053737;28;20079;-84
2022/08/11 10:01:41;;;;;;;10.95;5.53;;;26.00;99.90;;;;;;5054450;28;20053;-81
2022/08/11 10:04:23;;;;;;;8.73;7.00;;;26.10;99.90;;;;;;5054303;28;20060;-80
2022/08/11 10:07:01;;;;;;;10.15;7.88;;;26.30;99.90;;;;;;5055533;28;20056;-81
2022/08/11 10:09:53;;;;;;;10.65;8.35;;;26.10;99.90;;;;;;5055385;28;20045;-82
2022/08/11 10:12:23;;;;;;;8.23;7.40;;;26.20;99.90;;;;;;5055772;28;20041;-81
2022/08/11 10:18:40;;;;;;;10.27;7.70;;;26.30;99.90;;;;;;5055241;28;20131;-80
2022/08/11 10:20:33;;;;;;;9.82;8.13;;;26.50;99.90;;;;;;5055149;28;20048;-82
2022/08/11 10:28:37;;;;;;;14.50;8.65;;;26.30;99.90;;;;;;5053824;28;20056;-81
2022/08/11 10:33:59;;;;;;;9.30;6.25;;;26.20;99.90;;;;;;5055119;28;20400;-81
2022/08/11 10:36:30;;;;;;;8.63;6.53;;;26.00;99.90;;;;;;5054890;28;20055;-81
2022/08/11 10:38:58;;;;;;;8.90;6.47;;;26.30;99.90;;;;;;5055134;28;20080;-81
2022/08/11 10:44:10;;;;;;;9.25;6.47;;;26.70;99.90;;;;;;5054789;28;20056;-80
2022/08/11 10:49:24;;;;;;;7.43;5.75;;;26.40;99.90;;;;;;5053323;28;20049;-80
2022/08/11 11:00:06;;;;;;;10.43;5.75;;;26.80;99.90;;;;;;5054560;28;20045;-81
2022/08/11 11:02:33;;;;;;;25.60;6.72;;;26.50;99.90;;;;;;5053399;28;20045;-82
2022/08/11 11:05:14;;;;;;;8.50;5.95;;;26.50;99.90;;;;;;5054360;28;20041;-81
2022/08/11 11:08:02;;;;;;;9.82;7.53;;;26.90;99.90;;;;;;5053288;28;20055;-83
2022/08/11 11:10:29;;;;;;;8.88;7.97;;;27.00;99.90;;;;;;5053544;28;20041;-81
2022/08/11 11:18:35;;;;;;;11.23;7.50;;;27.10;99.90;;;;;;5054389;28;20045;-81
2022/08/11 11:21:13;;;;;;;11.10;7.95;;;27.30;99.90;;;;;;5054046;28;20472;-81
2022/08/11 11:23:52;;;;;;;9.73;6.82;;;27.20;99.90;;;;;;5052869;28;20559;-80
2022/08/11 11:26:23;;;;;;;12.50;8.27;;;27.60;99.90;;;;;;5053803;28;20088;-83
2022/08/11 11:28:58;;;;;;;9.30;6.05;;;27.50;99.90;;;;;;5052855;28;20056;-80
2022/08/11 11:31:45;;;;;;;8.65;6.72;;;27.60;99.90;;;;;;5054003;28;20056;-80
2022/08/11 11:34:28;;;;;;;10.55;4.85;;;27.30;99.90;;;;;;5053951;28;20473;-81
2022/08/11 11:36:58;;;;;;;8.20;5.68;;;27.50;99.90;;;;;;5053701;28;20080;-81
2022/08/11 11:39:31;;;;;;;8.52;5.00;;;27.60;99.90;;;;;;5053776;28;20045;-81
2022/08/11 11:42:03;;;;;;;5.72;3.97;;;27.60;99.90;;;;;;5052657;28;20396;-80
2022/08/11 11:44:30;;;;;;;7.70;4.05;;;27.60;99.90;;;;;;5053752;28;20040;-80
2022/08/11 11:46:59;;;;;;;5.80;3.80;;;27.90;99.90;;;;;;5052614;28;20057;-80
2022/08/11 11:49:28;;;;;;;6.82;3.60;;;28.00;99.90;;;;;;5052243;28;20159;-80
2022/08/11 11:51:55;;;;;;;8.15;3.60;;;28.20;99.90;;;;;;5052801;28;20055;-80
2022/08/11 11:54:27;;;;;;;5.57;3.35;;;28.40;99.90;;;;;;5052822;28;20457;-79
2022/08/11 11:56:55;;;;;;;5.28;3.45;;;28.20;99.90;;;;;;5052701;28;20250;-78
2022/08/11 12:02:11;;;;;;;5.32;2.95;;;27.70;99.90;;;;;;5053303;28;20428;-80
2022/08/11 12:04:43;;;;;;;4.95;3.30;;;28.10;99.90;;;;;;5053369;28;20049;-80
2022/08/11 12:09:56;;;;;;;5.10;2.92;;;28.00;99.90;;;;;;5053488;28;20053;-79
2022/08/11 12:15:07;;;;;;;5.97;3.00;;;27.60;99.90;;;;;;5053385;28;20083;-79
2022/08/11 12:17:35;;;;;;;6.70;2.85;;;27.80;99.90;;;;;;5053165;28;20088;-79
2022/08/11 12:20:02;;;;;;;4.75;2.20;;;28.00;99.90;;;;;;5053251;28;20044;-79
2022/08/11 12:28:00;;;;;;;4.38;2.20;;;28.40;99.90;;;;;;5046006;28;20068;-80
2022/08/11 12:30:25;;;;;;;3.08;2.28;;;28.50;99.90;;;;;;5052968;28;20080;-79
2022/08/11 12:32:52;;;;;;;6.00;2.45;;;28.60;99.90;;;;;;5052695;28;20471;-80
2022/08/11 12:35:17;;;;;;;4.20;2.20;;;28.40;99.90;;;;;;5052539;28;20094;-80
2022/08/11 12:37:57;;;;;;;5.32;2.80;;;28.60;99.90;;;;;;5053150;28;20041;-80
2022/08/11 12:46:22;;;;;;;5.53;2.38;;;28.90;99.90;;;;;;5053196;28;20183;-80
2022/08/11 12:51:59;;;;;;;7.20;2.95;;;29.00;99.90;;;;;;5046740;28;20116;-80
2022/08/11 12:54:33;;;;;;;6.13;2.42;;;28.90;99.90;;;;;;5052793;28;20404;-81
2022/08/11 13:05:23;;;;;;;7.18;2.53;;;28.30;99.90;;;;;;5052719;28;20512;-80
2022/08/11 13:07:49;;;;;;;4.70;2.10;;;28.20;99.90;;;;;;5052669;28;20068;-80
2022/08/11 13:13:07;;;;;;;4.88;2.20;;;28.30;99.90;;;;;;5052847;28;20110;-80
2022/08/11 13:15:35;;;;;;;4.10;2.00;;;28.70;99.90;;;;;;5052793;28;20091;-80
2022/08/11 13:18:01;;;;;;;4.53;2.30;;;28.80;99.90;;;;;;5051361;28;20485;-80
2022/08/11 13:20:27;;;;;;;5.53;1.95;;;28.60;99.90;;;;;;5052566;28;20037;-80
2022/08/11 13:22:56;;;;;;;4.40;2.20;;;28.90;99.90;;;;;;5051572;28;20183;-79
2022/08/11 13:25:24;;;;;;;6.18;2.33;;;28.90;99.90;;;;;;5051621;28;20076;-80
2022/08/11 13:27:54;;;;;;;6.75;2.33;;;28.80;99.90;;;;;;5051563;28;20081;-79
2022/08/11 13:33:09;;;;;;;4.57;2.20;;;28.00;99.90;;;;;;5051344;28;20056;-80
2022/08/11 13:35:36;;;;;;;2.60;1.77;;;27.80;99.90;;;;;;5054635;28;20049;-79
2022/08/11 13:38:03;;;;;;;5.88;2.05;;;27.50;99.90;;;;;;5055327;28;20041;-79
2022/08/11 13:40:31;;;;;;;5.72;2.00;;;27.60;99.90;;;;;;5056310;28;20037;-81
2022/08/11 13:42:57;;;;;;;6.15;2.22;;;27.50;99.90;;;;;;5054770;28;20052;-80
2022/08/11 13:45:25;;;;;;;7.28;2.22;;;27.70;99.90;;;;;;5056148;28;20075;-80
2022/08/11 13:47:58;;;;;;;3.38;2.20;;;27.80;99.90;;;;;;5054894;28;20045;-82
2022/08/11 13:51:29;;;;;;;5.40;2.67;;;27.80;99.90;;;;;;5056097;28;20123;-86
2022/08/11 13:53:15;;;;;;;3.90;1.77;;;27.60;99.90;;;;;;5055702;28;20140;-81
2022/08/11 13:55:42;;;;;;;5.30;2.20;;;27.90;99.90;;;;;;5054421;28;20534;-81
2022/08/11 13:58:12;;;;;;;5.28;2.17;;;28.10;99.90;;;;;;5054709;28;20045;-81
2022/08/11 14:00:38;;;;;;;10.57;2.20;;;27.80;99.90;;;;;;5054325;28;20045;-81
2022/08/11 14:03:10;;;;;;;5.68;2.20;;;27.90;99.90;;;;;;5055367;28;20098;-81
2022/08/11 14:05:37;;;;;;;;;;;27.60;99.90;;;;;;5056242;28;20132;-79
2022/08/11 14:08:09;;;;;;;4.70;1.85;;;27.30;99.90;;;;;;5055694;28;19921;-81
2022/08/11 14:10:37;;;;;;;3.22;1.83;;;27.20;99.90;;;;;;5054313;28;20045;-80
2022/08/11 14:16:00;;;;;;;3.90;1.60;;;27.50;99.90;;;;;;5055738;28;20056;-80
2022/08/11 14:18:28;;;;;;;4.97;2.22;;;27.70;99.90;;;;;;5055440;28;20048;-81
2022/08/11 14:23:44;;;;;;;5.72;1.95;;;28.10;99.90;;;;;;5055174;28;20053;-81
2022/08/11 14:26:25;;;;;;;4.55;2.08;;;28.10;99.90;;;;;;5055166;28;20053;-82
2022/08/11 14:29:12;;;;;;;6.78;1.83;;;28.30;99.90;;;;;;5055558;28;20110;-82
2022/08/11 14:31:44;;;;;;;5.30;1.90;;;28.00;99.90;;;;;;5055566;28;20037;-82
2022/08/11 14:34:11;;;;;;;4.95;2.08;;;27.60;99.90;;;;;;5055161;28;20079;-82
2022/08/11 14:36:42;;;;;;;5.57;2.20;;;27.40;99.90;;;;;;5055154;28;20512;-81
2022/08/11 14:39:11;;;;;;;4.43;2.00;;;27.10;99.90;;;;;;5055424;28;20105;-83
2022/08/11 14:47:16;;;;;;;5.50;1.80;;;27.20;99.90;;;;;;5055227;28;20080;-82
2022/08/11 14:49:42;;;;;;;3.92;1.92;;;26.90;99.90;;;;;;5055110;28;20041;-82
2022/08/11 14:52:14;;;;;;;5.18;1.70;;;27.10;99.90;;;;;;5053628;28;20080;-82
2022/08/11 14:57:35;;;;;;;4.38;1.83;;;27.00;99.90;;;;;;5035347;28;20291;-82
2022/08/11 15:00:03;;;;;;;6.25;1.98;;;27.50;99.90;;;;;;5053784;28;20088;-80
2022/08/11 15:05:14;;;;;;;4.00;1.95;;;26.80;99.90;;;;;;5054709;28;20056;-82
2022/08/11 15:07:40;;;;;;;4.88;1.98;;;26.70;99.90;;;;;;5054774;28;20084;-82
2022/08/11 15:10:08;;;;;;;4.93;1.90;;;26.50;99.90;;;;;;5054729;28;20040;-82
2022/08/11 15:12:35;;;;;;;4.97;2.10;;;26.50;99.90;;;;;;5054403;28;20131;-82
2022/08/11 15:17:50;;;;;;;4.53;2.40;;;26.50;99.90;;;;;;5053094;28;20060;-82
2022/08/11 15:26:00;;;;;;;5.72;2.55;;;26.30;99.90;;;;;;5054012;28;20060;-82
2022/08/11 15:45:46;;;;;;;5.90;2.20;;;26.20;99.90;;;;;;5052808;28;20045;-82
2022/08/11 15:48:06;;;;;;;3.88;2.13;;;25.90;99.90;;;;;;5054099;28;20120;-81
2022/08/11 15:50:37;;;;;;;2.80;1.88;;;25.70;99.90;;;;;;5052569;28;20124;-81
2022/08/11 15:53:10;;;;;;;3.97;2.10;;;25.90;99.90;;;;;;5052780;28;20049;-83
2022/08/11 15:55:37;;;;;;;3.90;1.80;;;25.50;99.90;;;;;;5052477;28;20111;-82
2022/08/11 16:04:14;;;;;;;4.72;2.63;;;25.70;99.90;;;;;;5053835;28;20187;-81
2022/08/11 16:06:42;;;;;;;5.03;3.00;;;25.80;99.90;;;;;;5031468;28;20061;-82
2022/08/11 16:09:09;;;;;;;6.88;3.17;;;25.90;99.90;;;;;;5052226;28;20051;-81
2022/08/11 16:11:35;;;;;;;3.33;2.03;;;25.80;99.90;;;;;;5052237;28;20504;-82
2022/08/11 16:16:51;;;;;;;5.80;3.63;;;25.70;99.90;;;;;;5053461;28;20534;-82
2022/08/11 16:19:18;;;;;;;5.03;3.47;;;25.60;99.90;;;;;;5052512;28;20049;-82
2022/08/11 16:21:45;;;;;;;4.88;3.75;;;25.60;99.90;;;;;;5052327;28;20521;-82
2022/08/11 16:24:13;;;;;;;11.98;10.63;;;25.60;99.90;;;;;;5053453;28;20044;-82
2022/08/11 16:26:42;;;;;;;14.68;13.13;;;25.60;99.90;;;;;;5053068;28;20061;-81
2022/08/11 16:29:10;;;;;;;12.02;9.20;;;25.50;99.90;;;;;;5052231;28;20053;-82
2022/08/11 16:31:37;;;;;;;7.28;6.55;;;25.40;99.90;;;;;;5053323;28;20053;-82
2022/08/11 16:38:33;;;;;;;9.23;8.32;;;25.50;99.90;;;;;;5052136;28;20049;-82
2022/08/11 16:39:38;;;;;;;8.05;5.97;;;25.40;99.90;;;;;;5053255;28;20053;-81
2022/08/11 16:47:35;;;;;;;14.63;12.48;;;25.30;99.90;;;;;;5053031;28;20053;-82
2022/08/11 16:50:02;;;;;;;9.43;8.50;;;25.00;99.90;;;;;;5052030;28;20558;-81
2022/08/11 16:52:28;;;;;;;12.98;11.23;;;25.00;99.90;;;;;;5051997;28;20052;-81
2022/08/11 16:54:53;;;;;;;9.57;8.55;;;25.00;99.90;;;;;;5051726;28;20448;-81
2022/08/11 17:00:11;;;;;;;9.77;8.20;;;24.90;99.90;;;;;;5053418;28;20053;-81
2022/08/11 17:14:20;;;;;;;5.18;2.72;;;24.60;99.90;;;;;;5056530;28;20504;-82
2022/08/11 17:16:49;;;;;;;3.65;2.88;;;24.30;99.90;;;;;;5056539;28;20498;-82
2022/08/11 17:19:22;;;;;;;6.13;3.38;;;24.40;99.90;;;;;;5056738;28;20040;-82
2022/08/11 17:24:39;;;;;;;11.05;3.45;;;24.40;99.90;;;;;;5056833;28;20048;-82
2022/08/11 17:27:07;;;;;;;5.05;3.33;;;24.30;99.90;;;;;;5054988;28;20057;-82
2022/08/11 17:29:42;;;;;;;5.55;3.70;;;24.10;99.90;;;;;;5056636;28;20098;-82
2022/08/11 17:37:48;;;;;;;6.70;2.97;;;24.10;99.90;;;;;;5056568;28;20056;-81
2022/08/11 17:40:23;;;;;;;5.65;2.70;;;24.00;99.90;;;;;;5055391;28;20536;-81
2022/08/11 17:48:27;;;;;;;5.00;2.95;;;23.80;99.90;;;;;;5056097;28;20393;-81
2022/08/11 17:50:54;;;;;;;4.78;2.47;;;23.80;99.90;;;;;;5056118;28;20472;-80
2022/08/11 17:59:50;;;;;;;4.70;2.50;;;23.70;99.90;;;;;;5054694;28;20061;-80
2022/08/11 18:01:45;;;;;;;6.60;2.50;;;23.50;99.90;;;;;;5054560;28;20053;-81
2022/08/11 18:04:13;;;;;;;4.80;2.50;;;23.50;99.90;;;;;;5056216;28;20033;-80
2022/08/11 18:06:40;;;;;;;5.18;2.58;;;23.40;99.90;;;;;;5055677;28;20377;-81
